createdAt,value
2019-02-08T00:01:29.561Z,13.40
2019-02-08T00:06:34.006Z,11.88
2019-02-08T00:11:38.776Z,13.03
2019-02-08T00:16:43.884Z,10.47
2019-02-08T00:21:51.367Z,10.00
2019-02-08T00:27:02.331Z,9.50
2019-02-08T00:32:10.261Z,14.90
2019-02-08T00:37:14.974Z,13.07
2019-02-08T00:42:19.945Z,11.20
2019-02-08T00:47:24.515Z,10.53
2019-02-08T00:52:30.758Z,13.90
2019-02-08T00:57:38.169Z,9.48
2019-02-08T01:02:43.104Z,12.73
2019-02-08T01:07:48.346Z,8.10
2019-02-08T01:12:53.159Z,10.45
2019-02-08T01:17:57.834Z,7.17
2019-02-08T01:23:02.306Z,11.05
2019-02-08T01:28:06.790Z,8.25
2019-02-08T01:33:12.660Z,11.40
2019-02-08T01:38:17.067Z,9.93
2019-02-08T01:43:24.653Z,9.50
2019-02-08T01:48:30.041Z,9.15
2019-02-08T01:53:34.616Z,10.23
2019-02-08T01:58:39.228Z,8.15
2019-02-08T02:03:43.586Z,10.18
2019-02-08T02:08:47.877Z,6.97
2019-02-08T02:13:52.286Z,8.00
2019-02-08T02:18:56.879Z,7.97
2019-02-08T02:24:01.700Z,9.18
2019-02-08T02:29:10.288Z,8.38
2019-02-08T02:34:20.218Z,9.08
2019-02-08T02:39:24.613Z,8.50
2019-02-08T08:57:35.461Z,6.70
2019-02-08T09:03:04.554Z,6.53
2019-02-08T09:08:51.887Z,8.33
2019-02-08T09:14:29.983Z,7.55
2019-02-08T09:20:03.454Z,8.85
2019-02-08T09:25:57.201Z,8.03
2019-02-08T09:31:34.207Z,8.53
2019-02-08T09:37:07.595Z,8.55
2019-02-08T09:43:10.108Z,7.37
2019-02-08T09:49:06.325Z,8.90
2019-02-08T10:01:10.858Z,6.60
2019-02-08T10:07:24.680Z,8.15
2019-02-08T10:13:26.333Z,9.65
2019-02-08T10:55:17.346Z,8.95
2019-02-08T11:07:06.809Z,8.15
2019-02-08T11:26:11.270Z,6.33
2019-02-08T12:01:01.674Z,4.90
2019-02-08T12:06:32.785Z,5.70
2019-02-08T12:11:38.030Z,4.90
2019-02-08T12:17:27.843Z,4.60
2019-02-08T12:22:43.112Z,4.30
2019-02-08T12:27:59.312Z,5.60
2019-02-08T12:33:23.941Z,5.25
2019-02-08T12:44:08.132Z,5.40
2019-02-08T12:49:35.789Z,3.93
2019-02-08T12:55:18.767Z,6.65
2019-02-08T13:01:19.626Z,6.87
2019-02-08T13:06:13.067Z,7.20
2019-02-08T13:17:23.200Z,7.03
2019-02-08T13:22:51.059Z,6.03
2019-02-08T13:27:59.056Z,5.07
2019-02-08T13:33:16.613Z,7.70
2019-02-08T13:38:48.147Z,7.95
2019-02-08T13:43:54.688Z,6.55
2019-02-08T14:06:49.523Z,8.75
2019-02-08T14:12:01.738Z,8.30
2019-02-08T14:17:19.619Z,4.37
2019-02-08T14:22:22.997Z,5.85
2019-02-08T14:27:27.661Z,4.62
